createdAt,value
2022-10-11T00:02:06.619Z,3.37
2022-10-11T00:04:34.431Z,2.70
2022-10-11T00:07:02.271Z,2.50
2022-10-11T00:09:30.526Z,3.57
2022-10-11T00:11:58.439Z,3.13
2022-10-11T00:14:27.227Z,2.20
2022-10-11T00:16:55.569Z,2.23
2022-10-11T00:19:24.884Z,3.07
2022-10-11T00:21:52.857Z,2.30
2022-10-11T00:24:20.795Z,3.33
2022-10-11T00:26:48.712Z,3.47
2022-10-11T00:29:16.554Z,2.90
2022-10-11T00:31:44.367Z,3.07
2022-10-11T00:34:13.233Z,3.37
2022-10-11T00:36:42.382Z,2.73
2022-10-11T00:39:10.243Z,3.30
2022-10-11T00:41:38.116Z,3.37
2022-10-11T00:44:18.823Z,2.93
2022-10-11T00:46:55.685Z,2.40
2022-10-11T00:49:34.592Z,4.30
2022-10-11T00:52:07.024Z,3.10
2022-10-11T00:54:38.167Z,2.33
2022-10-11T00:57:10.917Z,2.73
2022-10-11T00:59:42.620Z,2.03
2022-10-11T01:02:11.685Z,3.10
2022-10-11T01:04:40.239Z,2.20
2022-10-11T01:07:09.996Z,2.53
2022-10-11T01:09:37.888Z,3.20
2022-10-11T01:12:13.090Z,2.27
2022-10-11T01:15:00.961Z,3.63
2022-10-11T01:17:36.818Z,2.90
2022-10-11T01:20:28.044Z,2.50
2022-10-11T01:23:40.707Z,1.93
2022-10-11T01:26:35.759Z,2.10
2022-10-11T01:29:13.422Z,2.20
2022-10-11T01:31:49.694Z,2.10
2022-10-11T01:34:26.069Z,2.10
2022-10-11T01:37:00.158Z,3.00
2022-10-11T01:39:33.374Z,2.50
2022-10-11T01:42:05.066Z,2.50
2022-10-11T01:44:34.765Z,3.10
2022-10-11T01:47:04.005Z,2.90
2022-10-11T01:49:31.932Z,2.50
2022-10-11T01:52:04.838Z,2.10
2022-10-11T01:57:56.433Z,2.67
2022-10-11T02:00:28.083Z,2.13
2022-10-11T02:03:20.051Z,2.33
2022-10-11T02:05:52.643Z,2.00
2022-10-11T02:08:27.030Z,2.53
2022-10-11T02:11:03.092Z,2.50
2022-10-11T02:13:35.460Z,3.37
2022-10-11T02:16:08.503Z,2.87
2022-10-11T02:18:42.354Z,2.50
2022-10-11T02:21:13.258Z,4.23
2022-10-11T02:23:46.813Z,2.93
2022-10-11T02:26:16.161Z,2.60
2022-10-11T02:28:45.341Z,4.20
2022-10-11T02:31:15.123Z,2.87
2022-10-11T02:33:47.341Z,4.00
2022-10-11T02:36:24.600Z,2.80
2022-10-11T02:38:56.414Z,3.00
2022-10-11T02:41:30.472Z,2.30
2022-10-11T02:44:01.694Z,2.43
2022-10-11T02:46:31.172Z,2.40
2022-10-11T02:49:01.627Z,2.07
2022-10-11T02:51:32.384Z,3.10
2022-10-11T02:54:00.969Z,2.43
2022-10-11T02:56:28.792Z,2.33
2022-10-11T02:58:56.622Z,2.47
2022-10-11T03:01:24.569Z,2.53
2022-10-11T03:03:52.442Z,2.60
2022-10-11T03:06:22.327Z,2.87
2022-10-11T03:08:50.095Z,3.33
2022-10-11T03:11:17.902Z,2.70
2022-10-11T03:13:49.412Z,2.90
2022-10-11T03:16:17.217Z,2.90
2022-10-11T03:18:45.010Z,2.60
2022-10-11T03:21:12.832Z,3.33
2022-10-11T03:23:42.496Z,3.20
2022-10-11T03:26:10.500Z,2.77
2022-10-11T03:28:38.340Z,2.90
2022-10-11T03:31:06.379Z,2.80
2022-10-11T03:33:34.194Z,2.60
2022-10-11T03:36:02.212Z,2.90
2022-10-11T03:38:30.198Z,2.50
2022-10-11T03:40:59.375Z,2.73
2022-10-11T03:43:27.154Z,2.07
2022-10-11T03:45:54.979Z,2.93
2022-10-11T03:48:22.816Z,3.60
2022-10-11T03:50:50.966Z,2.10
2022-10-11T03:53:18.770Z,2.50
2022-10-11T03:55:46.566Z,2.20
2022-10-11T03:58:15.680Z,2.03
2022-10-11T04:00:43.472Z,1.80
2022-10-11T04:03:11.259Z,2.20
2022-10-11T04:05:39.138Z,2.40
2022-10-11T04:08:11.177Z,2.97
2022-10-11T04:10:39.953Z,2.10
2022-10-11T04:13:07.796Z,2.20
2022-10-11T04:15:38.409Z,2.47
2022-10-11T04:18:07.391Z,3.53
2022-10-11T04:20:35.909Z,2.13
2022-10-11T04:23:03.867Z,2.33
2022-10-11T04:25:31.687Z,3.00
2022-10-11T04:27:59.450Z,2.37
2022-10-11T04:30:27.247Z,1.70
2022-10-11T04:32:56.803Z,1.67
2022-10-11T04:35:24.552Z,1.90
2022-10-11T04:37:52.326Z,2.43
2022-10-11T04:40:20.227Z,2.57
2022-10-11T04:42:48.011Z,2.60
2022-10-11T04:45:15.829Z,1.77
2022-10-11T04:47:43.603Z,2.23
2022-10-11T04:50:12.732Z,2.13
2022-10-11T04:52:40.543Z,2.00
2022-10-11T04:55:08.980Z,2.37
2022-10-11T04:57:36.844Z,2.27
2022-10-11T05:00:05.303Z,2.40
2022-10-11T05:02:33.236Z,2.20
2022-10-11T05:05:01.028Z,2.47
2022-10-11T05:07:30.172Z,2.30
2022-10-11T05:09:58.059Z,2.20
2022-10-11T05:12:25.893Z,2.90
2022-10-11T05:14:53.707Z,2.00
2022-10-11T05:17:21.917Z,2.90
2022-10-11T05:19:49.724Z,2.10
2022-10-11T05:22:17.527Z,1.70
2022-10-11T05:24:46.651Z,2.50
2022-10-11T05:27:14.425Z,2.60
2022-10-11T05:29:42.214Z,2.10
2022-10-11T05:32:10.052Z,2.30
2022-10-11T05:34:37.816Z,2.30
2022-10-11T05:37:05.638Z,2.00
2022-10-11T05:39:33.483Z,2.40
2022-10-11T05:42:05.445Z,2.20
2022-10-11T05:44:35.480Z,1.57
2022-10-11T05:47:03.245Z,2.63
2022-10-11T05:49:31.083Z,2.37
2022-10-11T05:51:58.944Z,2.07
2022-10-11T05:54:29.717Z,5.13
2022-10-11T05:56:57.607Z,2.63
2022-10-11T05:59:26.721Z,1.83
2022-10-11T06:01:54.630Z,2.23
2022-10-11T06:04:22.524Z,2.17
2022-10-11T06:06:50.347Z,2.27
2022-10-11T06:09:18.112Z,2.33
2022-10-11T06:11:46.783Z,2.30
2022-10-11T06:14:14.645Z,1.87
2022-10-11T06:16:43.755Z,2.03
2022-10-11T06:19:11.553Z,2.13
2022-10-11T06:21:39.351Z,1.97
2022-10-11T06:24:09.212Z,3.87
2022-10-11T06:26:37.035Z,2.17
2022-10-11T06:29:04.981Z,3.17
2022-10-11T06:31:33.497Z,2.70
2022-10-11T06:34:02.636Z,3.00
2022-10-11T06:36:30.868Z,2.73
2022-10-11T06:39:00.921Z,2.40
2022-10-11T06:41:30.841Z,2.83
2022-10-11T06:43:58.986Z,2.93
2022-10-11T06:46:28.349Z,4.13
2022-10-11T06:48:56.374Z,3.80
2022-10-11T06:51:25.968Z,4.43
2022-10-11T06:53:57.737Z,4.20
2022-10-11T06:56:26.853Z,6.40
2022-10-11T06:58:55.085Z,7.60
2022-10-11T07:01:23.941Z,5.63
2022-10-11T07:03:53.112Z,4.77
2022-10-11T07:06:24.401Z,4.00
2022-10-11T07:08:54.067Z,4.70
2022-10-11T07:11:23.658Z,5.30
2022-10-11T07:13:52.620Z,4.63
2022-10-11T07:16:21.937Z,4.07
2022-10-11T07:18:58.797Z,4.77
2022-10-11T07:21:28.520Z,3.77
2022-10-11T07:23:57.641Z,3.37
2022-10-11T07:26:25.444Z,3.80
2022-10-11T07:28:53.455Z,4.10
2022-10-11T07:31:23.802Z,4.60
2022-10-11T07:33:51.681Z,4.20
2022-10-11T07:36:19.593Z,4.17
2022-10-11T07:38:50.013Z,3.90
2022-10-11T07:41:19.607Z,2.60
2022-10-11T07:43:49.503Z,3.17
2022-10-11T07:46:18.289Z,3.10
2022-10-11T07:48:46.198Z,3.42
2022-10-11T07:51:16.763Z,4.33
2022-10-11T07:53:46.072Z,3.13
2022-10-11T07:56:15.445Z,4.60
2022-10-11T07:58:44.983Z,2.10
2022-10-11T08:01:14.435Z,2.50
2022-10-11T08:03:42.315Z,3.93
2022-10-11T08:06:12.271Z,2.80
2022-10-11T08:08:40.113Z,2.80
2022-10-11T08:11:08.008Z,2.70
2022-10-11T08:13:36.191Z,2.57
2022-10-11T08:16:12.139Z,2.53
2022-10-11T08:19:05.847Z,2.87
2022-10-11T08:21:33.894Z,2.90
2022-10-11T08:24:03.415Z,2.90
2022-10-11T08:26:31.550Z,2.67
2022-10-11T08:29:02.143Z,2.93
2022-10-11T08:31:30.583Z,2.40
2022-10-11T08:33:58.436Z,2.60
2022-10-11T08:36:27.597Z,2.87
2022-10-11T08:38:55.494Z,2.70
2022-10-11T08:41:29.025Z,3.03
2022-10-11T08:44:04.296Z,2.03
2022-10-11T08:46:35.161Z,3.27
2022-10-11T08:49:03.473Z,2.03
2022-10-11T08:51:36.647Z,2.77
2022-10-11T08:54:08.276Z,3.00
2022-10-11T08:56:38.712Z,2.47
2022-10-11T08:59:21.931Z,2.60
2022-10-11T09:01:57.750Z,2.20
2022-10-11T09:04:25.606Z,2.20
2022-10-11T09:07:05.140Z,2.10
2022-10-11T09:09:51.617Z,2.30
2022-10-11T09:12:32.230Z,2.10
2022-10-11T09:15:21.451Z,2.33
2022-10-11T09:18:09.787Z,2.33
2022-10-11T09:20:51.746Z,2.33
2022-10-11T09:23:40.022Z,2.17
2022-10-11T09:26:15.466Z,1.97
2022-10-11T09:28:51.757Z,2.00
2022-10-11T09:31:19.648Z,2.87
2022-10-11T09:33:49.736Z,1.70
2022-10-11T09:36:26.610Z,2.47
2022-10-11T09:39:06.670Z,1.67
2022-10-11T09:41:39.413Z,1.80
2022-10-11T09:44:08.433Z,2.50
2022-10-11T09:46:40.954Z,2.23
2022-10-11T09:49:13.143Z,2.00
2022-10-11T09:51:44.334Z,4.33
2022-10-11T09:54:13.580Z,2.77
2022-10-11T09:56:44.697Z,2.20
2022-10-11T09:59:29.168Z,2.37
2022-10-11T10:02:18.719Z,1.93
2022-10-11T10:05:00.831Z,2.87
2022-10-11T10:07:30.476Z,1.97
2022-10-11T10:09:59.668Z,2.33
2022-10-11T10:12:30.303Z,2.60
2022-10-11T10:15:07.231Z,2.47
2022-10-11T10:17:36.545Z,2.43
2022-10-11T10:20:05.999Z,2.20
2022-10-11T10:22:36.639Z,2.70
2022-10-11T10:25:09.262Z,2.33
2022-10-11T10:27:37.814Z,2.10
2022-10-11T10:30:20.603Z,2.27
2022-10-11T10:32:53.858Z,2.20
2022-10-11T10:35:31.945Z,2.03
2022-10-11T10:38:12.314Z,1.80
2022-10-11T10:40:47.985Z,2.33
2022-10-11T10:43:18.290Z,1.57
2022-10-11T10:46:12.249Z,1.63
2022-10-11T10:51:44.190Z,1.97
2022-10-11T10:54:19.746Z,1.40
2022-10-11T10:56:54.415Z,2.47
2022-10-11T10:59:41.376Z,1.80
2022-10-11T11:02:38.967Z,2.07
2022-10-11T11:05:16.250Z,3.00
2022-10-11T11:07:50.878Z,2.00
2022-10-11T11:10:22.295Z,2.10
2022-10-11T11:12:57.796Z,2.63
2022-10-11T11:15:34.292Z,2.43
2022-10-11T11:18:20.903Z,1.90
2022-10-11T11:21:00.415Z,1.50
2022-10-11T11:23:35.169Z,1.60
2022-10-11T11:26:09.191Z,3.07
2022-10-11T11:28:54.431Z,1.87
2022-10-11T11:31:36.746Z,1.70
2022-10-11T11:34:13.514Z,2.20
2022-10-11T11:36:45.445Z,2.43
2022-10-11T11:39:19.006Z,2.37
2022-10-11T11:41:52.325Z,2.10
2022-10-11T11:44:27.621Z,1.80
2022-10-11T11:47:00.891Z,1.90
2022-10-11T11:49:34.820Z,2.70
2022-10-11T11:52:04.244Z,2.00
2022-10-11T11:54:43.336Z,2.10
2022-10-11T11:57:23.531Z,2.30
2022-10-11T12:00:00.499Z,1.40
2022-10-11T12:02:44.621Z,2.50
2022-10-11T12:05:14.973Z,1.67
2022-10-11T12:07:56.446Z,2.00
2022-10-11T12:10:33.983Z,1.60
2022-10-11T12:13:16.257Z,1.70
2022-10-11T12:16:00.713Z,3.03
2022-10-11T12:18:30.674Z,2.00
2022-10-11T12:21:08.238Z,1.90
2022-10-11T12:23:44.978Z,1.97
2022-10-11T12:26:38.078Z,1.93
2022-10-11T12:29:41.397Z,1.77
2022-10-11T12:32:49.782Z,2.20
2022-10-11T12:35:37.903Z,1.80
2022-10-11T12:38:14.406Z,1.80
2022-10-11T12:40:45.856Z,1.50
2022-10-11T12:43:27.282Z,2.50
2022-10-11T12:45:55.148Z,2.50
2022-10-11T12:48:52.891Z,1.70
2022-10-11T12:51:33.219Z,2.70
2022-10-11T12:54:30.019Z,1.60
2022-10-11T12:57:29.783Z,2.47
2022-10-11T13:00:16.976Z,2.20
2022-10-11T13:02:45.492Z,2.40
2022-10-11T13:05:23.088Z,2.07
2022-10-11T13:07:51.827Z,2.57
2022-10-11T13:10:25.210Z,2.63
2022-10-11T13:12:54.478Z,1.60
2022-10-11T13:15:24.248Z,2.70
2022-10-11T13:17:54.192Z,1.50
2022-10-11T13:20:27.656Z,2.17
2022-10-11T13:22:57.132Z,1.60
2022-10-11T13:25:27.143Z,2.07
2022-10-11T13:27:56.851Z,2.03
2022-10-11T13:30:27.737Z,1.60
2022-10-11T13:32:55.652Z,2.00
2022-10-11T13:35:31.488Z,1.77
2022-10-11T13:38:00.036Z,3.30
2022-10-11T13:40:28.421Z,1.77
2022-10-11T13:42:57.034Z,1.77
2022-10-11T13:45:27.501Z,2.63
2022-10-11T13:47:57.106Z,2.13
2022-10-11T13:50:31.851Z,1.80
2022-10-11T13:53:01.835Z,2.00
2022-10-11T13:55:34.098Z,2.40
2022-10-11T13:58:05.064Z,1.93
2022-10-11T14:00:35.024Z,2.10
2022-10-11T14:03:08.796Z,1.80
2022-10-11T14:05:41.157Z,3.60
2022-10-11T14:08:22.252Z,2.40
2022-10-11T14:10:56.423Z,2.90
2022-10-11T14:13:29.943Z,2.70
2022-10-11T14:16:03.752Z,2.20
2022-10-11T14:18:38.686Z,1.97
2022-10-11T14:21:29.879Z,2.50
2022-10-11T14:23:59.571Z,2.13
2022-10-11T14:26:31.696Z,2.20
2022-10-11T14:29:01.831Z,2.10
2022-10-11T14:31:30.208Z,2.10
2022-10-11T14:33:58.629Z,2.00
2022-10-11T14:36:27.893Z,2.20
2022-10-11T14:38:55.839Z,1.97
2022-10-11T14:41:25.887Z,1.60
2022-10-11T14:43:56.393Z,2.17
2022-10-11T14:46:26.552Z,2.17
2022-10-11T14:48:56.290Z,1.80
2022-10-11T14:51:30.417Z,2.13
2022-10-11T14:53:58.769Z,2.50
2022-10-11T14:56:26.762Z,2.67
2022-10-11T14:58:54.538Z,2.70
2022-10-11T15:01:22.398Z,2.03
2022-10-11T15:03:50.292Z,1.80
2022-10-11T15:06:20.752Z,2.20
2022-10-11T15:08:49.906Z,2.20
2022-10-11T15:11:19.677Z,1.97
2022-10-11T15:13:47.722Z,2.00
2022-10-11T15:16:18.989Z,1.65
2022-10-11T15:18:50.758Z,3.20
2022-10-11T15:21:20.474Z,1.80
2022-10-11T15:23:50.655Z,2.23
2022-10-11T15:26:22.618Z,2.30
2022-10-11T15:28:51.148Z,2.17
2022-10-11T15:31:19.169Z,1.67
2022-10-11T15:33:47.260Z,2.03
2022-10-11T15:36:18.521Z,1.53
2022-10-11T15:38:47.114Z,1.77
2022-10-11T15:41:18.873Z,1.70
2022-10-11T15:43:48.815Z,1.77
2022-10-11T15:46:18.871Z,1.83
2022-10-11T15:48:47.577Z,1.70
2022-10-11T15:51:15.424Z,2.10
2022-10-11T15:53:43.332Z,1.70
2022-10-11T15:56:18.658Z,1.70
2022-10-11T15:58:46.917Z,1.50
2022-10-11T16:01:16.402Z,1.40
2022-10-11T16:03:44.967Z,1.90
2022-10-11T16:06:13.491Z,2.90
2022-10-11T16:08:41.719Z,1.90
2022-10-11T16:11:11.002Z,1.90
2022-10-11T16:13:40.373Z,2.30
2022-10-11T16:16:10.334Z,1.80
2022-10-11T16:18:38.375Z,2.00
2022-10-11T16:21:08.803Z,2.27
2022-10-11T16:23:37.246Z,2.33
2022-10-11T16:26:08.307Z,2.43
2022-10-11T16:28:37.616Z,2.30
2022-10-11T16:31:09.057Z,1.87
2022-10-11T16:33:45.189Z,2.23
2022-10-11T16:36:31.411Z,2.03
2022-10-11T16:38:59.501Z,2.10
2022-10-11T16:41:27.797Z,1.93
2022-10-11T16:43:56.411Z,1.93
2022-10-11T16:46:25.705Z,2.37
2022-10-11T16:48:56.211Z,1.70
2022-10-11T16:51:25.232Z,1.60
2022-10-11T16:53:53.492Z,1.70
2022-10-11T16:56:24.917Z,2.70
2022-10-11T16:58:53.696Z,2.13
2022-10-11T17:01:23.327Z,2.10
2022-10-11T17:03:53.277Z,2.20
2022-10-11T17:06:21.787Z,2.23
2022-10-11T17:08:49.989Z,1.70
2022-10-11T17:11:18.399Z,2.43
2022-10-11T17:13:46.682Z,2.30
2022-10-11T17:16:15.034Z,2.13
2022-10-11T17:18:42.949Z,2.27
2022-10-11T17:21:14.992Z,2.63
2022-10-11T17:23:43.534Z,2.60
2022-10-11T17:26:16.180Z,2.23
2022-10-11T17:28:44.477Z,1.70
2022-10-11T17:31:12.372Z,2.07
2022-10-11T17:33:40.435Z,4.03
2022-10-11T17:36:18.093Z,3.40
2022-10-11T17:38:45.906Z,2.57
2022-10-11T17:41:13.993Z,1.90
2022-10-11T17:43:42.208Z,1.90
2022-10-11T17:46:12.701Z,2.03
2022-10-11T17:48:40.734Z,1.90
2022-10-11T17:51:09.819Z,2.17
2022-10-11T17:53:39.180Z,3.40
2022-10-11T17:56:10.374Z,2.37
2022-10-11T17:58:38.630Z,2.17
2022-10-11T18:01:09.082Z,2.50
2022-10-11T18:03:37.815Z,2.57
2022-10-11T18:06:07.731Z,2.90
2022-10-11T18:08:40.133Z,3.33
2022-10-11T18:11:13.219Z,2.43
2022-10-11T18:13:45.522Z,2.40
2022-10-11T18:16:13.539Z,3.10
2022-10-11T18:18:43.431Z,3.17
2022-10-11T18:21:12.159Z,3.57
2022-10-11T18:23:40.120Z,3.90
2022-10-11T18:26:14.480Z,4.03
2022-10-11T18:28:43.347Z,4.07
2022-10-11T18:31:14.310Z,3.70
2022-10-11T18:33:45.400Z,4.40
2022-10-11T18:36:15.289Z,3.73
2022-10-11T18:38:46.500Z,3.87
2022-10-11T18:41:17.515Z,4.70
2022-10-11T18:43:49.765Z,3.93
2022-10-11T18:46:18.072Z,3.80
2022-10-11T18:48:47.571Z,3.03
2022-10-11T18:51:18.281Z,5.33
2022-10-11T18:53:46.576Z,4.17
2022-10-11T18:56:17.058Z,4.23
2022-10-11T18:58:45.791Z,4.00
2022-10-11T19:01:16.338Z,3.63
2022-10-11T19:03:45.631Z,4.30
2022-10-11T19:06:17.091Z,4.37
2022-10-11T19:08:45.310Z,3.60
2022-10-11T19:11:15.608Z,3.97
2022-10-11T19:13:44.624Z,3.97
2022-10-11T19:16:14.371Z,4.40
2022-10-11T19:18:44.427Z,3.33
2022-10-11T19:21:14.549Z,3.17
2022-10-11T19:23:44.179Z,4.10
2022-10-11T19:26:17.269Z,3.70
2022-10-11T19:28:45.675Z,3.87
2022-10-11T19:31:17.039Z,3.87
2022-10-11T19:33:48.466Z,3.83
2022-10-11T19:36:17.599Z,3.53
2022-10-11T19:38:48.202Z,3.73
2022-10-11T19:41:19.839Z,3.90
2022-10-11T19:43:48.174Z,3.50
2022-10-11T19:46:38.068Z,3.60
2022-10-11T19:49:07.360Z,3.80
2022-10-11T19:51:37.221Z,3.90
2022-10-11T19:54:07.288Z,3.70
2022-10-11T19:56:36.572Z,3.77
2022-10-11T19:59:06.297Z,3.70
2022-10-11T20:01:35.480Z,4.33
2022-10-11T20:04:05.922Z,3.78
2022-10-11T20:06:38.559Z,3.17
2022-10-11T20:09:27.979Z,4.13
2022-10-11T20:11:56.005Z,3.33
2022-10-11T20:14:24.139Z,3.80
2022-10-11T20:16:52.308Z,3.93
2022-10-11T20:19:20.617Z,4.33
2022-10-11T20:21:49.150Z,3.70
2022-10-11T20:24:18.153Z,3.90
2022-10-11T20:26:46.585Z,3.43
2022-10-11T20:29:15.858Z,4.50
2022-10-11T20:31:43.680Z,3.97
2022-10-11T20:34:11.534Z,3.77
2022-10-11T20:36:39.293Z,3.90
2022-10-11T20:39:07.707Z,3.30
2022-10-11T20:41:39.638Z,3.93
2022-10-11T20:44:09.544Z,4.40
2022-10-11T20:46:41.667Z,3.90
2022-10-11T20:49:11.292Z,3.50
2022-10-11T20:51:41.421Z,3.80
2022-10-11T20:54:09.611Z,4.73
2022-10-11T20:56:37.595Z,3.70
2022-10-11T20:59:06.143Z,3.90
2022-10-11T21:01:36.934Z,4.10
2022-10-11T21:04:07.917Z,3.93
2022-10-11T21:06:35.989Z,3.13
2022-10-11T21:09:04.355Z,3.67
2022-10-11T21:11:35.529Z,4.57
2022-10-11T21:14:05.241Z,4.47
2022-10-11T21:16:33.348Z,4.27
2022-10-11T21:19:02.490Z,4.13
2022-10-11T21:21:32.170Z,4.10
2022-10-11T21:24:01.947Z,3.87
2022-10-11T21:26:31.094Z,4.90
2022-10-11T21:29:00.129Z,4.27
2022-10-11T21:31:33.607Z,3.67
2022-10-11T21:34:02.395Z,3.63
2022-10-11T21:36:31.811Z,4.13
2022-10-11T21:38:59.672Z,4.80
2022-10-11T21:41:29.743Z,4.77
2022-10-11T21:43:58.299Z,4.27
2022-10-11T21:46:47.565Z,3.27
2022-10-11T21:49:16.005Z,3.20
2022-10-11T21:51:45.728Z,3.87
2022-10-11T21:54:13.650Z,3.63
2022-10-11T21:56:41.897Z,3.43
2022-10-11T21:59:12.308Z,3.53
2022-10-11T22:01:41.574Z,3.50
2022-10-11T22:04:09.667Z,3.90
2022-10-11T22:06:38.114Z,3.70
2022-10-11T22:09:08.415Z,3.87
2022-10-11T22:11:36.646Z,4.60
2022-10-11T22:14:04.531Z,3.90
2022-10-11T22:16:33.725Z,3.43
2022-10-11T22:19:01.567Z,3.70
2022-10-11T22:21:29.502Z,4.00
2022-10-11T22:23:57.532Z,3.40
2022-10-11T22:26:30.856Z,4.70
2022-10-11T22:28:59.359Z,3.90
2022-10-11T22:31:27.203Z,3.47
2022-10-11T22:33:55.815Z,3.40
2022-10-11T22:36:24.931Z,2.90
2022-10-11T22:38:54.013Z,3.10
2022-10-11T22:41:21.800Z,3.10
2022-10-11T22:43:51.167Z,3.57
2022-10-11T22:46:19.251Z,3.97
2022-10-11T22:48:47.066Z,3.70
2022-10-11T22:51:15.373Z,3.40
2022-10-11T22:53:43.196Z,2.80
2022-10-11T22:56:11.613Z,3.50
2022-10-11T22:58:39.435Z,2.90
2022-10-11T23:01:10.385Z,3.43
2022-10-11T23:03:38.552Z,3.70
2022-10-11T23:06:06.723Z,3.50
2022-10-11T23:08:34.569Z,3.70
2022-10-11T23:11:04.657Z,3.27
2022-10-11T23:13:32.423Z,3.87
2022-10-11T23:16:00.288Z,3.37
2022-10-11T23:18:29.437Z,4.40
2022-10-11T23:21:00.757Z,3.53
2022-10-11T23:23:28.599Z,4.10
2022-10-11T23:26:04.439Z,3.40
2022-10-11T23:28:32.824Z,6.00
2022-10-11T23:31:02.074Z,3.80
2022-10-11T23:33:31.229Z,3.37
2022-10-11T23:35:59.030Z,3.77
2022-10-11T23:38:26.806Z,3.40
2022-10-11T23:40:55.089Z,4.00
2022-10-11T23:43:22.938Z,3.63
2022-10-11T23:45:51.166Z,3.20
2022-10-11T23:48:19.249Z,3.53
2022-10-11T23:50:48.472Z,2.80
2022-10-11T23:53:16.225Z,3.00
2022-10-11T23:55:44.427Z,3.40
2022-10-11T23:58:12.379Z,2.93
